createdAt,value
2023-04-03T00:01:39.349Z,100607.67
2023-04-03T00:04:20.630Z,100611.85
2023-04-03T00:06:49.362Z,100613.25
2023-04-03T00:09:20.411Z,100616.02
2023-04-03T00:11:48.598Z,100616.48
2023-04-03T00:14:17.078Z,100624.13
2023-04-03T00:16:58.071Z,100621.32
2023-04-03T00:19:28.418Z,100628.06
2023-04-03T00:21:56.744Z,100630.67
2023-04-03T00:24:25.099Z,100632.71
2023-04-03T00:26:59.187Z,100631.45
2023-04-03T00:29:28.763Z,100631.55
2023-04-03T00:31:57.009Z,100638.63
2023-04-03T00:34:26.158Z,100641.20
2023-04-03T00:36:55.642Z,100641.50
2023-04-03T00:39:23.954Z,100641.81
2023-04-03T00:41:56.068Z,100645.27
2023-04-03T00:44:44.924Z,100643.84
2023-04-03T00:47:14.694Z,100642.91
2023-04-03T00:49:42.989Z,100643.44
2023-04-03T00:52:16.772Z,100643.24
2023-04-03T00:54:45.486Z,100641.50
2023-04-03T00:57:13.801Z,100641.12
2023-04-03T00:59:45.311Z,100641.77
2023-04-03T01:02:13.904Z,100638.23
2023-04-03T01:04:44.015Z,100638.55
2023-04-03T01:07:13.955Z,100641.55
2023-04-03T01:09:42.651Z,100636.31
2023-04-03T01:12:18.571Z,100640.54
2023-04-03T01:14:53.964Z,100642.98
2023-04-03T01:17:25.964Z,100640.20
2023-04-03T01:20:21.235Z,100642.84
2023-04-03T01:23:12.222Z,100639.95
2023-04-03T01:25:45.957Z,100635.66
2023-04-03T01:28:31.143Z,100636.48
2023-04-03T01:31:23.597Z,100639.02
2023-04-03T01:33:52.209Z,100639.59
2023-04-03T01:36:25.639Z,100641.56
2023-04-03T01:38:54.281Z,100644.19
2023-04-03T01:41:22.607Z,100644.52
2023-04-03T01:43:51.561Z,100650.06
2023-04-03T01:46:19.938Z,100649.35
2023-04-03T01:48:48.694Z,100652.29
2023-04-03T01:51:17.662Z,100653.52
2023-04-03T01:53:46.153Z,100655.48
2023-04-03T01:56:15.546Z,100657.05
2023-04-03T01:58:43.957Z,100660.54
2023-04-03T02:01:12.517Z,100667.50
2023-04-03T02:03:41.963Z,100668.88
2023-04-03T02:06:11.505Z,100666.95
2023-04-03T02:08:42.947Z,100672.02
2023-04-03T02:11:11.462Z,100673.92
2023-04-03T02:13:40.265Z,100671.45
2023-04-03T02:16:11.087Z,100677.17
2023-04-03T02:18:39.753Z,100679.14
2023-04-03T02:21:08.749Z,100678.23
2023-04-03T02:23:38.070Z,100676.02
2023-04-03T02:26:13.824Z,100680.40
2023-04-03T02:28:43.613Z,100683.06
2023-04-03T02:31:11.956Z,100688.66
2023-04-03T02:33:41.187Z,100688.66
2023-04-03T02:36:10.856Z,100692.83
2023-04-03T02:38:40.973Z,100696.33
2023-04-03T02:41:11.411Z,100698.42
2023-04-03T02:43:40.316Z,100700.88
2023-04-03T02:46:09.139Z,100705.96
2023-04-03T02:48:37.952Z,100704.61
2023-04-03T02:51:06.197Z,100708.50
2023-04-03T02:53:35.891Z,100710.10
2023-04-03T02:56:09.503Z,100713.79
2023-04-03T02:58:38.048Z,100709.81
2023-04-03T03:01:07.826Z,100711.27
2023-04-03T03:03:36.604Z,100711.66
2023-04-03T03:06:06.467Z,100717.44
2023-04-03T03:08:37.102Z,100714.89
2023-04-03T03:11:05.659Z,100721.89
2023-04-03T03:13:35.091Z,100723.14
2023-04-03T03:16:03.630Z,100730.48
2023-04-03T03:18:31.963Z,100731.09
2023-04-03T03:21:08.052Z,100732.03
2023-04-03T03:23:37.634Z,100729.65
2023-04-03T03:26:07.327Z,100731.98
2023-04-03T03:28:40.234Z,100729.41
2023-04-03T03:31:11.744Z,100735.36
2023-04-03T03:33:40.701Z,100738.73
2023-04-03T03:36:09.083Z,100744.17
2023-04-03T03:38:38.333Z,100745.09
2023-04-03T03:41:06.746Z,100751.06
2023-04-03T03:43:40.291Z,100751.83
2023-04-03T03:46:08.903Z,100749.04
2023-04-03T03:48:37.264Z,100748.54
2023-04-03T03:51:05.971Z,100751.14
2023-04-03T03:53:36.895Z,100751.70
2023-04-03T03:56:07.938Z,100754.84
2023-04-03T03:58:37.871Z,100757.80
2023-04-03T04:01:12.131Z,100760.84
2023-04-03T04:03:49.074Z,100757.94
2023-04-03T04:06:20.505Z,100761.39
2023-04-03T04:08:51.994Z,100765.52
2023-04-03T04:11:21.709Z,100769.17
2023-04-03T04:13:50.391Z,100772.66
2023-04-03T04:16:19.421Z,100775.47
2023-04-03T04:18:47.710Z,100775.10
2023-04-03T04:21:16.716Z,100773.34
2023-04-03T04:23:46.578Z,100773.65
2023-04-03T04:26:15.268Z,100774.85
2023-04-03T04:28:44.440Z,100776.40
2023-04-03T04:31:13.390Z,100779.13
2023-04-03T04:33:42.409Z,100778.55
2023-04-03T04:36:11.689Z,100776.38
2023-04-03T04:38:43.028Z,100780.13
2023-04-03T04:41:11.476Z,100778.19
2023-04-03T04:43:39.975Z,100783.59
2023-04-03T04:46:09.664Z,100784.09
2023-04-03T04:48:42.045Z,100790.89
2023-04-03T04:51:13.631Z,100791.91
2023-04-03T04:53:43.627Z,100792.73
2023-04-03T04:56:16.800Z,100788.59
2023-04-03T04:58:45.682Z,100788.52
2023-04-03T05:01:13.950Z,100787.18
2023-04-03T05:04:13.685Z,100791.08
2023-04-03T05:06:42.970Z,100792.84
2023-04-03T05:09:15.746Z,100791.79
2023-04-03T05:11:44.611Z,100793.17
2023-04-03T05:14:14.026Z,100799.38
2023-04-03T05:16:42.596Z,100799.45
2023-04-03T05:19:11.018Z,100799.52
2023-04-03T05:21:39.923Z,100803.04
2023-04-03T05:24:13.367Z,100806.39
2023-04-03T05:26:43.315Z,100806.85
2023-04-03T05:29:12.725Z,100811.02
2023-04-03T05:31:41.363Z,100808.33
2023-04-03T05:34:10.824Z,100816.56
2023-04-03T05:36:39.643Z,100820.19
2023-04-03T05:39:09.801Z,100820.30
2023-04-03T05:41:40.551Z,100823.59
2023-04-03T05:44:08.860Z,100826.14
2023-04-03T05:46:37.558Z,100827.26
2023-04-03T05:49:07.537Z,100831.10
2023-04-03T05:51:37.814Z,100835.41
2023-04-03T05:54:18.953Z,100839.06
2023-04-03T05:56:50.693Z,100839.10
2023-04-03T05:59:20.259Z,100843.34
2023-04-03T06:01:49.799Z,100841.08
2023-04-03T06:04:20.292Z,100838.84
2023-04-03T06:06:53.826Z,100844.36
2023-04-03T06:09:25.199Z,100851.41
2023-04-03T06:11:54.121Z,100851.43
2023-04-03T06:14:23.785Z,100850.65
2023-04-03T06:17:01.063Z,100854.73
2023-04-03T06:19:30.125Z,100856.51
2023-04-03T06:21:58.740Z,100861.48
2023-04-03T06:24:27.329Z,100863.59
2023-04-03T06:26:55.801Z,100866.96
2023-04-03T06:29:25.406Z,100867.35
2023-04-03T06:31:54.012Z,100872.84
2023-04-03T06:34:22.576Z,100873.27
2023-04-03T06:36:52.844Z,100880.37
2023-04-03T06:39:23.611Z,100884.21
2023-04-03T06:41:51.894Z,100886.71
2023-04-03T06:44:21.242Z,100889.65
2023-04-03T06:46:50.061Z,100895.15
2023-04-03T06:49:18.392Z,100901.36
2023-04-03T06:51:46.538Z,100903.14
2023-04-03T06:54:16.272Z,100908.88
2023-04-03T06:56:44.435Z,100911.02
2023-04-03T06:59:14.145Z,100913.06
2023-04-03T07:01:43.082Z,100917.39
2023-04-03T07:04:12.297Z,100921.04
2023-04-03T07:06:40.904Z,100921.11
2023-04-03T07:09:10.221Z,100922.27
2023-04-03T07:11:39.499Z,100923.91
2023-04-03T07:14:08.895Z,100926.71
2023-04-03T07:19:13.448Z,100926.36
2023-04-03T07:21:43.065Z,100927.38
2023-04-03T07:24:15.099Z,100930.63
2023-04-03T07:26:46.414Z,100934.59
2023-04-03T07:29:15.202Z,100930.99
2023-04-03T07:31:43.713Z,100928.27
2023-04-03T07:34:12.443Z,100927.15
2023-04-03T07:36:41.879Z,100931.19
2023-04-03T07:39:10.135Z,100938.35
2023-04-03T07:41:41.721Z,100943.58
2023-04-03T07:44:11.102Z,100952.48
2023-04-03T07:46:39.768Z,100960.41
2023-04-03T07:49:08.061Z,100967.03
2023-04-03T07:51:37.038Z,100974.30
2023-04-03T07:54:05.398Z,100982.30
2023-04-03T07:56:34.613Z,100985.88
2023-04-03T07:59:06.572Z,100993.34
2023-04-03T08:01:34.972Z,100995.75
2023-04-03T08:04:04.098Z,101000.05
2023-04-03T08:06:45.912Z,101001.71
2023-04-03T08:09:19.796Z,101005.55
2023-04-03T08:11:48.172Z,101007.49
2023-04-03T08:14:18.075Z,101011.41
2023-04-03T08:16:47.488Z,101015.08
2023-04-03T08:19:25.518Z,101017.00
2023-04-03T08:21:56.552Z,101019.84
2023-04-03T08:24:25.956Z,101023.07
2023-04-03T08:26:54.392Z,101024.26
2023-04-03T08:29:23.034Z,101027.19
2023-04-03T08:31:52.143Z,101026.60
2023-04-03T08:34:21.297Z,101033.58
2023-04-03T08:36:51.993Z,101039.45
2023-04-03T08:39:20.920Z,101043.99
2023-04-03T08:41:49.578Z,101049.91
2023-04-03T08:44:27.556Z,101053.86
2023-04-03T08:47:01.878Z,101055.02
2023-04-03T08:49:36.870Z,101052.73
2023-04-03T08:52:09.788Z,101055.52
2023-04-03T08:54:48.844Z,101047.59
2023-04-03T08:57:17.317Z,101044.38
2023-04-03T08:59:45.608Z,101050.29
2023-04-03T09:02:25.165Z,101060.64
2023-04-03T09:04:54.098Z,101063.48
2023-04-03T09:07:37.956Z,101064.71
2023-04-03T09:10:07.793Z,101067.36
2023-04-03T09:12:43.911Z,101075.83
2023-04-03T09:15:24.783Z,101067.18
2023-04-03T09:18:12.483Z,101068.15
2023-04-03T09:20:52.848Z,101069.40
2023-04-03T09:23:24.583Z,101072.56
2023-04-03T09:25:55.591Z,101079.70
2023-04-03T09:28:24.409Z,101082.64
2023-04-03T09:30:52.565Z,101082.05
2023-04-03T09:33:22.563Z,101088.05
2023-04-03T09:35:50.862Z,101090.05
2023-04-03T09:38:21.481Z,101090.80
2023-04-03T09:40:52.551Z,101089.89
2023-04-03T09:43:26.242Z,101098.38
2023-04-03T09:45:55.259Z,101106.49
2023-04-03T09:48:25.064Z,101108.08
2023-04-03T09:51:04.202Z,101110.25
2023-04-03T09:53:40.259Z,101112.79
2023-04-03T09:56:17.349Z,101112.75
2023-04-03T09:58:51.063Z,101116.86
2023-04-03T10:01:29.163Z,101112.67
2023-04-03T10:04:07.744Z,101111.61
2023-04-03T10:06:38.844Z,101117.48
2023-04-03T10:09:22.796Z,101122.89
2023-04-03T10:12:06.229Z,101130.50
2023-04-03T10:14:35.784Z,101141.06
2023-04-03T10:17:22.515Z,101140.86
2023-04-03T10:19:55.377Z,101145.09
2023-04-03T10:22:29.038Z,101145.23
2023-04-03T10:25:14.844Z,101142.90
2023-04-03T10:27:50.164Z,101145.70
2023-04-03T10:30:40.308Z,101149.14
2023-04-03T10:33:14.912Z,101152.95
2023-04-03T10:35:43.445Z,101158.16
2023-04-03T10:38:20.976Z,101167.13
2023-04-03T10:41:02.086Z,101163.09
2023-04-03T10:44:06.706Z,101158.58
2023-04-03T10:46:42.961Z,101155.44
2023-04-03T10:49:29.967Z,101160.53
2023-04-03T10:52:13.518Z,101157.57
2023-04-03T10:55:08.483Z,101161.73
2023-04-03T10:57:37.309Z,101158.95
2023-04-03T11:00:20.441Z,101152.08
2023-04-03T11:03:07.263Z,101149.38
2023-04-03T11:05:41.132Z,101147.71
2023-04-03T11:08:14.687Z,101144.63
2023-04-03T11:10:44.400Z,101140.79
2023-04-03T11:13:24.206Z,101135.81
2023-04-03T11:15:54.266Z,101128.14
2023-04-03T11:18:35.489Z,101123.73
2023-04-03T11:21:22.742Z,101122.52
2023-04-03T11:23:51.245Z,101118.42
2023-04-03T11:26:22.122Z,101118.28
2023-04-03T11:28:55.092Z,101117.99
2023-04-03T11:31:42.188Z,101115.16
2023-04-03T11:34:16.709Z,101113.71
2023-04-03T11:36:50.293Z,101114.69
2023-04-03T11:39:24.142Z,101120.95
2023-04-03T11:42:00.246Z,101121.10
2023-04-03T11:44:37.846Z,101122.04
2023-04-03T11:47:09.183Z,101126.61
2023-04-03T11:50:07.875Z,101125.91
2023-04-03T11:52:47.081Z,101126.75
2023-04-03T11:55:32.904Z,101123.32
2023-04-03T11:58:03.823Z,101127.73
2023-04-03T12:00:50.182Z,101124.23
2023-04-03T12:03:32.444Z,101124.67
2023-04-03T12:09:00.174Z,101128.29
2023-04-03T12:11:47.516Z,101130.77
2023-04-03T12:14:22.980Z,101131.20
2023-04-03T12:16:54.645Z,101129.42
2023-04-03T12:19:48.741Z,101123.75
2023-04-03T12:22:34.913Z,101121.38
2023-04-03T12:25:05.563Z,101125.61
2023-04-03T12:27:43.781Z,101125.98
2023-04-03T12:30:29.281Z,101129.75
2023-04-03T12:33:29.188Z,101127.68
2023-04-03T12:38:58.255Z,101139.55
2023-04-03T12:41:44.387Z,101139.98
2023-04-03T12:44:40.724Z,101141.06
2023-04-03T12:47:25.316Z,101142.48
2023-04-03T12:49:58.310Z,101151.15
2023-04-03T12:52:45.005Z,101152.09
2023-04-03T12:55:25.432Z,101155.25
2023-04-03T12:57:55.304Z,101154.30
2023-04-03T13:00:36.007Z,101154.38
2023-04-03T13:03:27.887Z,101160.05
2023-04-03T13:06:04.219Z,101163.61
2023-04-03T13:08:34.304Z,101160.52
2023-04-03T13:11:10.056Z,101162.52
2023-04-03T13:13:46.738Z,101168.52
2023-04-03T13:16:22.134Z,101166.73
2023-04-03T13:19:01.663Z,101167.41
2023-04-03T13:21:36.800Z,101171.36
2023-04-03T13:24:15.228Z,101169.22
2023-04-03T13:26:43.831Z,101165.33
2023-04-03T13:29:37.387Z,101160.98
2023-04-03T13:32:07.678Z,101164.23
2023-04-03T13:34:45.876Z,101166.65
2023-04-03T13:37:25.679Z,101165.27
2023-04-03T13:40:09.093Z,101168.20
2023-04-03T13:42:37.951Z,101176.14
2023-04-03T13:45:22.151Z,101179.71
2023-04-03T13:47:51.263Z,101185.38
2023-04-03T13:50:26.506Z,101188.55
2023-04-03T13:53:01.194Z,101189.73
2023-04-03T13:55:35.795Z,101189.88
2023-04-03T13:58:24.637Z,101191.42
2023-04-03T14:01:26.618Z,101196.69
2023-04-03T14:04:03.853Z,101202.61
2023-04-03T14:06:32.348Z,101211.08
2023-04-03T14:09:02.195Z,101217.96
2023-04-03T14:11:31.438Z,101226.91
2023-04-03T14:14:02.179Z,101236.25
2023-04-03T14:16:38.909Z,101242.77
2023-04-03T14:19:07.660Z,101241.06
2023-04-03T14:21:35.968Z,101238.04
2023-04-03T14:24:04.174Z,101239.14
2023-04-03T14:26:32.600Z,101242.30
2023-04-03T14:29:00.829Z,101246.42
2023-04-03T14:31:29.683Z,101250.29
2023-04-03T14:33:58.514Z,101254.98
2023-04-03T14:36:28.164Z,101257.16
2023-04-03T14:38:56.707Z,101263.70
2023-04-03T14:41:25.498Z,101263.06
2023-04-03T14:43:54.516Z,101265.69
2023-04-03T14:46:51.410Z,101263.98
2023-04-03T14:49:30.524Z,101265.91
2023-04-03T14:51:59.002Z,101268.99
2023-04-03T14:54:29.140Z,101265.68
2023-04-03T14:56:59.176Z,101267.76
2023-04-03T14:59:28.080Z,101271.48
2023-04-03T15:01:56.614Z,101271.59
2023-04-03T15:04:26.418Z,101270.05
2023-04-03T15:06:55.448Z,101276.80
2023-04-03T15:09:24.781Z,101278.65
2023-04-03T15:11:53.630Z,101282.80
2023-04-03T15:14:36.342Z,101282.98
2023-04-03T15:17:06.661Z,101285.10
2023-04-03T15:19:37.959Z,101286.95
2023-04-03T15:22:06.736Z,101291.73
2023-04-03T15:24:35.144Z,101288.79
2023-04-03T15:27:03.922Z,101290.65
2023-04-03T15:29:32.260Z,101287.40
2023-04-03T15:32:01.296Z,101283.29
2023-04-03T15:34:30.164Z,101278.69
2023-04-03T15:37:01.110Z,101287.64
2023-04-03T15:39:29.753Z,101287.77
2023-04-03T15:42:01.085Z,101289.08
2023-04-03T15:44:30.024Z,101290.99
2023-04-03T15:46:58.866Z,101297.53
2023-04-03T15:49:27.929Z,101307.67
2023-04-03T15:51:56.601Z,101316.80
2023-04-03T15:54:25.939Z,101319.02
2023-04-03T15:56:54.557Z,101326.23
2023-04-03T15:59:23.834Z,101326.54
2023-04-03T16:01:52.038Z,101333.12
2023-04-03T16:04:22.096Z,101343.68
2023-04-03T16:06:53.388Z,101350.52
2023-04-03T16:09:21.648Z,101358.56
2023-04-03T16:11:49.868Z,101365.35
2023-04-03T16:14:23.133Z,101370.29
2023-04-03T16:16:51.554Z,101368.02
2023-04-03T16:19:25.191Z,101376.06
2023-04-03T16:21:55.670Z,101383.02
2023-04-03T16:24:24.052Z,101387.13
2023-04-03T16:26:54.523Z,101387.10
2023-04-03T16:29:22.895Z,101387.10
2023-04-03T16:31:55.540Z,101392.13
2023-04-03T16:34:23.844Z,101397.52
2023-04-03T16:36:53.399Z,101396.29
2023-04-03T16:39:21.645Z,101400.35
2023-04-03T16:41:50.023Z,101410.44
2023-04-03T16:44:18.194Z,101407.41
2023-04-03T16:46:47.757Z,101410.91
2023-04-03T16:49:16.800Z,101416.61
2023-04-03T16:51:46.209Z,101422.86
2023-04-03T16:54:14.849Z,101421.38
2023-04-03T16:56:43.875Z,101425.98
2023-04-03T16:59:12.234Z,101428.48
2023-04-03T17:01:40.472Z,101439.23
2023-04-03T17:04:08.748Z,101441.10
2023-04-03T17:06:37.877Z,101443.56
2023-04-03T17:09:06.439Z,101447.75
2023-04-03T17:14:10.093Z,101452.19
2023-04-03T17:16:38.351Z,101456.11
2023-04-03T17:19:07.042Z,101459.48
2023-04-03T17:21:35.788Z,101456.84
2023-04-03T17:24:09.535Z,101455.61
2023-04-03T17:26:37.814Z,101459.44
2023-04-03T17:29:06.082Z,101461.15
2023-04-03T17:31:34.661Z,101468.08
2023-04-03T17:34:03.003Z,101467.77
2023-04-03T17:36:31.788Z,101468.15
2023-04-03T17:39:00.366Z,101470.49
2023-04-03T17:41:28.525Z,101471.23
2023-04-03T17:43:57.255Z,101471.94
2023-04-03T17:46:25.656Z,101470.97
2023-04-03T17:48:54.520Z,101471.96
2023-04-03T17:51:23.790Z,101476.00
2023-04-03T17:53:51.992Z,101475.41
2023-04-03T17:56:24.937Z,101470.84
2023-04-03T17:58:54.270Z,101469.02
2023-04-03T18:01:24.721Z,101472.75
2023-04-03T18:03:55.371Z,101476.11
2023-04-03T18:06:27.002Z,101479.57
2023-04-03T18:08:56.895Z,101482.29
2023-04-03T18:11:29.653Z,101479.98
2023-04-03T18:14:00.234Z,101472.80
2023-04-03T18:16:31.231Z,101475.16
2023-04-03T18:21:49.668Z,101471.91
2023-04-03T18:24:18.871Z,101475.02
2023-04-03T18:26:51.318Z,101479.89
2023-04-03T18:29:19.772Z,101485.26
2023-04-03T18:31:49.788Z,101484.35
2023-04-03T18:34:18.512Z,101483.05
2023-04-03T18:36:47.695Z,101478.70
2023-04-03T18:39:23.990Z,101481.16
2023-04-03T18:41:54.105Z,101479.74
2023-04-03T18:44:23.331Z,101478.78
2023-04-03T18:46:53.819Z,101478.24
2023-04-03T18:49:21.986Z,101477.88
2023-04-03T18:51:50.206Z,101480.08
2023-04-03T18:54:18.427Z,101476.27
2023-04-03T18:56:47.438Z,101468.66
2023-04-03T18:59:16.644Z,101469.08
2023-04-03T19:01:44.953Z,101476.25
2023-04-03T19:04:13.348Z,101479.38
2023-04-03T19:06:41.696Z,101485.40
2023-04-03T19:09:10.146Z,101491.89
2023-04-03T19:11:38.404Z,101492.09
2023-04-03T19:14:16.737Z,101492.14
2023-04-03T19:16:45.772Z,101488.59
2023-04-03T19:19:14.107Z,101485.12
2023-04-03T19:21:42.385Z,101487.25
2023-04-03T19:24:11.727Z,101486.61
2023-04-03T19:26:46.234Z,101484.42
2023-04-03T19:29:15.441Z,101486.40
2023-04-03T19:31:44.203Z,101483.27
2023-04-03T19:34:13.000Z,101482.08
2023-04-03T19:36:42.429Z,101489.23
2023-04-03T19:39:13.471Z,101490.44
2023-04-03T19:41:46.402Z,101488.66
2023-04-03T19:44:14.591Z,101487.51
2023-04-03T19:46:51.196Z,101489.30
2023-04-03T19:49:20.118Z,101494.90
2023-04-03T19:51:48.901Z,101491.24
2023-04-03T19:54:17.509Z,101488.85
2023-04-03T19:56:45.831Z,101485.74
2023-04-03T19:59:14.359Z,101485.17
2023-04-03T20:01:42.755Z,101484.40
2023-04-03T20:04:11.476Z,101486.72
2023-04-03T20:06:39.818Z,101486.27
2023-04-03T20:09:08.556Z,101491.80
2023-04-03T20:11:40.597Z,101496.28
2023-04-03T20:14:08.896Z,101500.33
2023-04-03T20:16:37.345Z,101501.59
2023-04-03T20:19:07.317Z,101501.13
2023-04-03T20:21:35.605Z,101502.34
2023-04-03T20:24:05.679Z,101502.73
2023-04-03T20:26:38.916Z,101497.16
2023-04-03T20:29:07.386Z,101499.79
2023-04-03T20:31:38.956Z,101497.60
2023-04-03T20:34:07.848Z,101502.55
2023-04-03T20:36:37.575Z,101505.17
2023-04-03T20:39:06.772Z,101499.10
2023-04-03T20:41:37.580Z,101496.54
2023-04-03T20:44:06.158Z,101497.14
2023-04-03T20:46:48.970Z,101492.02
2023-04-03T20:49:18.562Z,101497.46
2023-04-03T20:51:46.820Z,101497.05
2023-04-03T20:54:15.221Z,101494.94
2023-04-03T20:56:44.381Z,101496.69
2023-04-03T20:59:14.249Z,101501.66
2023-04-03T21:01:43.190Z,101499.58
2023-04-03T21:04:17.156Z,101491.36
2023-04-03T21:07:23.210Z,101486.82
2023-04-03T21:10:28.775Z,101483.88
2023-04-03T21:13:35.003Z,101485.66
2023-04-03T21:16:04.107Z,101486.60
2023-04-03T21:18:37.790Z,101486.13
2023-04-03T21:21:06.054Z,101482.17
2023-04-03T21:23:34.507Z,101484.05
2023-04-03T21:26:03.271Z,101489.15
2023-04-03T21:28:31.860Z,101486.67
2023-04-03T21:31:00.111Z,101484.23
2023-04-03T21:33:31.822Z,101487.40
2023-04-03T21:36:00.389Z,101490.14
2023-04-03T21:38:28.892Z,101488.91
2023-04-03T21:40:58.149Z,101487.36
2023-04-03T21:43:27.102Z,101492.82
2023-04-03T21:45:57.062Z,101489.23
2023-04-03T21:48:28.851Z,101489.32
2023-04-03T21:51:04.624Z,101486.60
2023-04-03T21:53:34.590Z,101491.71
2023-04-03T21:56:03.062Z,101492.64
2023-04-03T21:58:35.283Z,101494.70
2023-04-03T22:01:10.845Z,101496.48
2023-04-03T22:03:41.650Z,101494.61
2023-04-03T22:06:14.058Z,101498.33
2023-04-03T22:08:42.676Z,101503.52
2023-04-03T22:11:13.075Z,101509.15
2023-04-03T22:13:41.946Z,101511.79
2023-04-03T22:16:11.339Z,101512.11
2023-04-03T22:18:39.873Z,101512.29
2023-04-03T22:21:08.484Z,101506.05
2023-04-03T22:23:38.034Z,101500.20
2023-04-03T22:26:07.679Z,101497.99
2023-04-03T22:28:41.471Z,101496.12
2023-04-03T22:31:13.524Z,101495.98
2023-04-03T22:33:42.211Z,101494.60
2023-04-03T22:36:11.622Z,101491.99
2023-04-03T22:38:40.034Z,101486.27
2023-04-03T22:41:08.364Z,101486.41
2023-04-03T22:43:38.068Z,101486.96
2023-04-03T22:46:09.164Z,101487.00
2023-04-03T22:48:42.436Z,101487.25
2023-04-03T22:51:10.595Z,101476.64
2023-04-03T22:53:41.730Z,101472.46
2023-04-03T22:56:11.339Z,101461.75
2023-04-03T22:58:40.314Z,101453.63
2023-04-03T23:01:12.944Z,101442.73
2023-04-03T23:03:42.600Z,101437.22
2023-04-03T23:06:11.176Z,101438.92
2023-04-03T23:08:42.147Z,101440.97
2023-04-03T23:11:10.368Z,101439.39
2023-04-03T23:13:38.645Z,101442.80
2023-04-03T23:16:08.164Z,101443.08
2023-04-03T23:18:39.977Z,101448.26
2023-04-03T23:21:09.601Z,101453.98
2023-04-03T23:23:38.288Z,101456.06
2023-04-03T23:26:06.726Z,101459.19
2023-04-03T23:28:36.940Z,101456.23
2023-04-03T23:31:10.283Z,101453.98
2023-04-03T23:33:39.612Z,101456.73
2023-04-03T23:36:08.248Z,101458.70
2023-04-03T23:38:42.519Z,101455.04
2023-04-03T23:41:13.131Z,101451.80
2023-04-03T23:43:42.446Z,101445.05
2023-04-03T23:46:11.171Z,101439.19
2023-04-03T23:48:39.923Z,101435.04
2023-04-03T23:51:12.062Z,101429.83
2023-04-03T23:53:40.839Z,101433.10
2023-04-03T23:56:13.334Z,101426.48
2023-04-03T23:58:43.190Z,101422.63
